sensor_id;sensor_type;location;lat;lon;timestamp;P1;durP1;ratioP1;P2;durP2;ratioP2
71667;SDS011;59504;54.806;9.640;2023-03-01T00:00:41;25.30;;;12.60;;
71667;SDS011;59504;54.806;9.640;2023-03-01T00:03:06;21.92;;;10.90;;
71667;SDS011;59504;54.806;9.640;2023-03-01T00:05:25;25.52;;;13.10;;
71667;SDS011;59504;54.806;9.640;2023-03-01T00:07:44;26.85;;;11.80;;
71667;SDS011;59504;54.806;9.640;2023-03-01T00:10:04;25.38;;;12.85;;
71667;SDS011;59504;54.806;9.640;2023-03-01T00:12:24;20.52;;;11.50;;
71667;SDS011;59504;54.806;9.640;2023-03-01T00:14:43;23.63;;;11.63;;
71667;SDS011;59504;54.806;9.640;2023-03-01T00:17:02;25.45;;;11.65;;
71667;SDS011;59504;54.806;9.640;2023-03-01T00:19:21;23.75;;;11.60;;
71667;SDS011;59504;54.806;9.640;2023-03-01T00:21:40;27.38;;;12.50;;
71667;SDS011;59504;54.806;9.640;2023-03-01T00:23:59;24.77;;;12.13;;
71667;SDS011;59504;54.806;9.640;2023-03-01T00:26:20;25.33;;;12.02;;
71667;SDS011;59504;54.806;9.640;2023-03-01T00:28:41;27.98;;;13.18;;
71667;SDS011;59504;54.806;9.640;2023-03-01T00:33:34;30.80;;;13.07;;
71667;SDS011;59504;54.806;9.640;2023-03-01T00:35:53;71.10;;;13.48;;
71667;SDS011;59504;54.806;9.640;2023-03-01T00:38:12;61.15;;;13.48;;
71667;SDS011;59504;54.806;9.640;2023-03-01T00:40:32;131.60;;;13.52;;
71667;SDS011;59504;54.806;9.640;2023-03-01T00:42:53;115.80;;;12.15;;
71667;SDS011;59504;54.806;9.640;2023-03-01T00:45:13;109.07;;;13.52;;
71667;SDS011;59504;54.806;9.640;2023-03-01T00:47:32;50.08;;;11.40;;
71667;SDS011;59504;54.806;9.640;2023-03-01T00:49:51;158.57;;;12.50;;
71667;SDS011;59504;54.806;9.640;2023-03-01T00:52:10;86.68;;;11.27;;
71667;SDS011;59504;54.806;9.640;2023-03-01T00:54:29;145.93;;;11.98;;
71667;SDS011;59504;54.806;9.640;2023-03-01T00:56:48;159.38;;;11.80;;
71667;SDS011;59504;54.806;9.640;2023-03-01T00:59:07;175.43;;;11.93;;
71667;SDS011;59504;54.806;9.640;2023-03-01T01:01:27;147.30;;;11.93;;
71667;SDS011;59504;54.806;9.640;2023-03-01T01:04:04;141.50;;;11.60;;
71667;SDS011;59504;54.806;9.640;2023-03-01T01:06:30;144.07;;;11.80;;
71667;SDS011;59504;54.806;9.640;2023-03-01T01:08:54;97.38;;;10.68;;
71667;SDS011;59504;54.806;9.640;2023-03-01T01:11:14;158.48;;;11.50;;
71667;SDS011;59504;54.806;9.640;2023-03-01T01:13:34;136.07;;;11.57;;
71667;SDS011;59504;54.806;9.640;2023-03-01T01:15:53;133.95;;;11.27;;
71667;SDS011;59504;54.806;9.640;2023-03-01T01:18:12;167.82;;;10.75;;
71667;SDS011;59504;54.806;9.640;2023-03-01T01:20:31;156.95;;;10.38;;
71667;SDS011;59504;54.806;9.640;2023-03-01T01:22:50;86.07;;;9.93;;
71667;SDS011;59504;54.806;9.640;2023-03-01T01:25:09;138.23;;;9.85;;
71667;SDS011;59504;54.806;9.640;2023-03-01T01:27:29;184.95;;;10.63;;
71667;SDS011;59504;54.806;9.640;2023-03-01T01:29:49;145.35;;;9.93;;
71667;SDS011;59504;54.806;9.640;2023-03-01T01:32:08;162.70;;;10.68;;
71667;SDS011;59504;54.806;9.640;2023-03-01T01:34:27;137.73;;;9.15;;
71667;SDS011;59504;54.806;9.640;2023-03-01T01:36:50;124.18;;;8.48;;
71667;SDS011;59504;54.806;9.640;2023-03-01T01:39:12;119.03;;;7.85;;
71667;SDS011;59504;54.806;9.640;2023-03-01T01:41:31;135.15;;;7.13;;
71667;SDS011;59504;54.806;9.640;2023-03-01T01:46:32;118.10;;;6.40;;
71667;SDS011;59504;54.806;9.640;2023-03-01T01:48:57;81.83;;;6.00;;
71667;SDS011;59504;54.806;9.640;2023-03-01T01:51:21;116.20;;;5.85;;
71667;SDS011;59504;54.806;9.640;2023-03-01T01:53:58;70.53;;;5.93;;
71667;SDS011;59504;54.806;9.640;2023-03-01T01:56:19;130.43;;;5.93;;
71667;SDS011;59504;54.806;9.640;2023-03-01T01:58:41;115.03;;;6.10;;
71667;SDS011;59504;54.806;9.640;2023-03-01T02:01:02;60.28;;;5.03;;
71667;SDS011;59504;54.806;9.640;2023-03-01T02:03:24;84.70;;;4.70;;
71667;SDS011;59504;54.806;9.640;2023-03-01T02:05:48;105.85;;;6.22;;
71667;SDS011;59504;54.806;9.640;2023-03-01T02:08:15;96.00;;;5.65;;
71667;SDS011;59504;54.806;9.640;2023-03-01T02:10:37;77.47;;;4.70;;
71667;SDS011;59504;54.806;9.640;2023-03-01T02:12:57;71.32;;;4.70;;
71667;SDS011;59504;54.806;9.640;2023-03-01T02:15:17;57.25;;;5.53;;
71667;SDS011;59504;54.806;9.640;2023-03-01T02:17:36;56.85;;;5.28;;
71667;SDS011;59504;54.806;9.640;2023-03-01T02:22:45;68.40;;;5.78;;
71667;SDS011;59504;54.806;9.640;2023-03-01T02:27:53;60.20;;;4.72;;
71667;SDS011;59504;54.806;9.640;2023-03-01T02:30:16;32.00;;;4.90;;
71667;SDS011;59504;54.806;9.640;2023-03-01T02:32:38;34.95;;;5.38;;
71667;SDS011;59504;54.806;9.640;2023-03-01T02:35:00;22.23;;;5.63;;
71667;SDS011;59504;54.806;9.640;2023-03-01T02:37:20;13.88;;;5.07;;
71667;SDS011;59504;54.806;9.640;2023-03-01T02:39:44;11.17;;;5.10;;
71667;SDS011;59504;54.806;9.640;2023-03-01T02:42:08;15.48;;;5.28;;
71667;SDS011;59504;54.806;9.640;2023-03-01T02:44:31;13.52;;;5.18;;
71667;SDS011;59504;54.806;9.640;2023-03-01T02:46:51;9.45;;;4.88;;
71667;SDS011;59504;54.806;9.640;2023-03-01T02:49:20;19.27;;;4.95;;
71667;SDS011;59504;54.806;9.640;2023-03-01T02:51:45;21.08;;;5.05;;
71667;SDS011;59504;54.806;9.640;2023-03-01T02:54:40;6.45;;;3.88;;
71667;SDS011;59504;54.806;9.640;2023-03-01T02:57:00;9.75;;;4.05;;
71667;SDS011;59504;54.806;9.640;2023-03-01T02:59:22;7.90;;;3.90;;
71667;SDS011;59504;54.806;9.640;2023-03-01T03:01:45;8.40;;;3.40;;
71667;SDS011;59504;54.806;9.640;2023-03-01T03:04:09;8.57;;;4.18;;
71667;SDS011;59504;54.806;9.640;2023-03-01T03:06:30;11.48;;;4.00;;
71667;SDS011;59504;54.806;9.640;2023-03-01T03:08:49;8.65;;;4.13;;
71667;SDS011;59504;54.806;9.640;2023-03-01T03:11:08;19.20;;;4.35;;
71667;SDS011;59504;54.806;9.640;2023-03-01T03:13:27;12.02;;;3.80;;
71667;SDS011;59504;54.806;9.640;2023-03-01T03:15:47;21.15;;;4.70;;
71667;SDS011;59504;54.806;9.640;2023-03-01T03:18:13;7.10;;;3.97;;
71667;SDS011;59504;54.806;9.640;2023-03-01T03:20:34;7.95;;;3.92;;
71667;SDS011;59504;54.806;9.640;2023-03-01T03:22:54;8.70;;;4.35;;
71667;SDS011;59504;54.806;9.640;2023-03-01T03:25:17;6.10;;;4.10;;
71667;SDS011;59504;54.806;9.640;2023-03-01T03:27:38;8.57;;;4.90;;
71667;SDS011;59504;54.806;9.640;2023-03-01T03:29:59;14.93;;;5.10;;
71667;SDS011;59504;54.806;9.640;2023-03-01T03:32:18;10.32;;;5.85;;
71667;SDS011;59504;54.806;9.640;2023-03-01T03:34:37;14.10;;;5.07;;
71667;SDS011;59504;54.806;9.640;2023-03-01T03:36:56;9.30;;;4.97;;
71667;SDS011;59504;54.806;9.640;2023-03-01T03:39:18;10.00;;;4.75;;
71667;SDS011;59504;54.806;9.640;2023-03-01T03:41:38;14.73;;;5.35;;
71667;SDS011;59504;54.806;9.640;2023-03-01T03:43:57;8.18;;;4.53;;
71667;SDS011;59504;54.806;9.640;2023-03-01T03:46:16;8.82;;;4.88;;
71667;SDS011;59504;54.806;9.640;2023-03-01T03:48:37;8.35;;;4.80;;
71667;SDS011;59504;54.806;9.640;2023-03-01T03:53:19;12.18;;;4.25;;
71667;SDS011;59504;54.806;9.640;2023-03-01T03:55:39;14.82;;;4.50;;
71667;SDS011;59504;54.806;9.640;2023-03-01T03:57:59;9.85;;;4.40;;
71667;SDS011;59504;54.806;9.640;2023-03-01T04:00:21;25.20;;;4.60;;
71667;SDS011;59504;54.806;9.640;2023-03-01T04:02:42;8.60;;;4.18;;
71667;SDS011;59504;54.806;9.640;2023-03-01T04:05:02;13.98;;;4.55;;
71667;SDS011;59504;54.806;9.640;2023-03-01T04:07:21;7.07;;;3.90;;
71667;SDS011;59504;54.806;9.640;2023-03-01T04:09:41;9.05;;;4.05;;
71667;SDS011;59504;54.806;9.640;2023-03-01T04:12:02;21.77;;;3.75;;
71667;SDS011;59504;54.806;9.640;2023-03-01T04:14:21;14.95;;;4.07;;
71667;SDS011;59504;54.806;9.640;2023-03-01T04:16:40;14.32;;;4.30;;
71667;SDS011;59504;54.806;9.640;2023-03-01T04:18:59;9.77;;;4.00;;
71667;SDS011;59504;54.806;9.640;2023-03-01T04:21:19;8.85;;;3.72;;
71667;SDS011;59504;54.806;9.640;2023-03-01T04:23:39;12.25;;;4.03;;
71667;SDS011;59504;54.806;9.640;2023-03-01T04:25:59;19.35;;;3.63;;
71667;SDS011;59504;54.806;9.640;2023-03-01T04:30:55;21.33;;;3.72;;
71667;SDS011;59504;54.806;9.640;2023-03-01T04:33:15;73.45;;;4.05;;
71667;SDS011;59504;54.806;9.640;2023-03-01T04:35:35;44.85;;;4.38;;
71667;SDS011;59504;54.806;9.640;2023-03-01T04:37:55;45.58;;;4.00;;
71667;SDS011;59504;54.806;9.640;2023-03-01T04:40:14;50.75;;;4.10;;
71667;SDS011;59504;54.806;9.640;2023-03-01T04:42:35;6.10;;;2.90;;
71667;SDS011;59504;54.806;9.640;2023-03-01T04:44:54;46.72;;;4.30;;
71667;SDS011;59504;54.806;9.640;2023-03-01T04:47:13;29.48;;;3.47;;
71667;SDS011;59504;54.806;9.640;2023-03-01T04:49:32;26.88;;;3.42;;
71667;SDS011;59504;54.806;9.640;2023-03-01T04:51:51;20.63;;;3.35;;
71667;SDS011;59504;54.806;9.640;2023-03-01T04:54:10;59.35;;;4.40;;
71667;SDS011;59504;54.806;9.640;2023-03-01T04:56:29;47.45;;;4.22;;
71667;SDS011;59504;54.806;9.640;2023-03-01T04:58:49;54.00;;;3.92;;
71667;SDS011;59504;54.806;9.640;2023-03-01T05:01:12;61.55;;;4.35;;
71667;SDS011;59504;54.806;9.640;2023-03-01T05:03:36;75.53;;;4.45;;
71667;SDS011;59504;54.806;9.640;2023-03-01T05:05:58;54.78;;;4.15;;
71667;SDS011;59504;54.806;9.640;2023-03-01T05:08:18;61.95;;;4.03;;
71667;SDS011;59504;54.806;9.640;2023-03-01T05:10:39;45.33;;;4.40;;
71667;SDS011;59504;54.806;9.640;2023-03-01T05:12:59;38.70;;;3.40;;
71667;SDS011;59504;54.806;9.640;2023-03-01T05:15:19;33.97;;;4.00;;
71667;SDS011;59504;54.806;9.640;2023-03-01T05:17:40;59.30;;;4.53;;
71667;SDS011;59504;54.806;9.640;2023-03-01T05:19:59;66.15;;;4.15;;
71667;SDS011;59504;54.806;9.640;2023-03-01T05:22:19;70.05;;;4.35;;
71667;SDS011;59504;54.806;9.640;2023-03-01T05:24:39;98.07;;;4.72;;
71667;SDS011;59504;54.806;9.640;2023-03-01T05:26:58;106.55;;;5.63;;
71667;SDS011;59504;54.806;9.640;2023-03-01T05:29:19;81.28;;;4.30;;
71667;SDS011;59504;54.806;9.640;2023-03-01T05:31:43;67.03;;;4.07;;
71667;SDS011;59504;54.806;9.640;2023-03-01T05:34:03;86.82;;;4.38;;
71667;SDS011;59504;54.806;9.640;2023-03-01T05:36:23;129.20;;;5.82;;
71667;SDS011;59504;54.806;9.640;2023-03-01T05:38:42;53.05;;;3.78;;
71667;SDS011;59504;54.806;9.640;2023-03-01T05:41:03;126.85;;;5.65;;
71667;SDS011;59504;54.806;9.640;2023-03-01T05:43:22;50.00;;;4.05;;
71667;SDS011;59504;54.806;9.640;2023-03-01T05:45:42;58.65;;;4.57;;
71667;SDS011;59504;54.806;9.640;2023-03-01T05:48:01;43.08;;;4.10;;
71667;SDS011;59504;54.806;9.640;2023-03-01T05:50:22;7.85;;;3.28;;
71667;SDS011;59504;54.806;9.640;2023-03-01T05:52:50;22.67;;;4.00;;
71667;SDS011;59504;54.806;9.640;2023-03-01T05:55:11;59.88;;;4.68;;
71667;SDS011;59504;54.806;9.640;2023-03-01T05:57:30;73.65;;;5.05;;
71667;SDS011;59504;54.806;9.640;2023-03-01T05:59:49;36.33;;;4.20;;
71667;SDS011;59504;54.806;9.640;2023-03-01T06:02:08;148.07;;;6.60;;
71667;SDS011;59504;54.806;9.640;2023-03-01T06:04:28;45.88;;;4.05;;
71667;SDS011;59504;54.806;9.640;2023-03-01T06:06:47;96.90;;;5.00;;
71667;SDS011;59504;54.806;9.640;2023-03-01T06:09:06;104.15;;;5.25;;
71667;SDS011;59504;54.806;9.640;2023-03-01T06:11:27;72.85;;;4.00;;
71667;SDS011;59504;54.806;9.640;2023-03-01T06:13:46;50.38;;;4.30;;
71667;SDS011;59504;54.806;9.640;2023-03-01T06:16:05;33.38;;;3.95;;
71667;SDS011;59504;54.806;9.640;2023-03-01T06:18:25;186.60;;;6.40;;
71667;SDS011;59504;54.806;9.640;2023-03-01T06:20:44;54.30;;;3.80;;
71667;SDS011;59504;54.806;9.640;2023-03-01T06:23:10;105.65;;;6.00;;
71667;SDS011;59504;54.806;9.640;2023-03-01T06:25:29;76.25;;;4.03;;
71667;SDS011;59504;54.806;9.640;2023-03-01T06:27:48;100.15;;;5.70;;
71667;SDS011;59504;54.806;9.640;2023-03-01T06:30:09;62.03;;;4.25;;
71667;SDS011;59504;54.806;9.640;2023-03-01T06:32:29;82.25;;;4.07;;
71667;SDS011;59504;54.806;9.640;2023-03-01T06:34:46;98.53;;;5.22;;
71667;SDS011;59504;54.806;9.640;2023-03-01T06:37:06;65.55;;;4.55;;
71667;SDS011;59504;54.806;9.640;2023-03-01T06:39:27;94.78;;;4.70;;
71667;SDS011;59504;54.806;9.640;2023-03-01T06:41:46;123.13;;;5.40;;
71667;SDS011;59504;54.806;9.640;2023-03-01T06:44:05;244.90;;;7.57;;
71667;SDS011;59504;54.806;9.640;2023-03-01T06:46:06;131.38;;;4.78;;
71667;SDS011;59504;54.806;9.640;2023-03-01T06:48:07;108.88;;;5.30;;
71667;SDS011;59504;54.806;9.640;2023-03-01T06:50:08;127.28;;;5.43;;
71667;SDS011;59504;54.806;9.640;2023-03-01T06:52:10;111.97;;;5.30;;
71667;SDS011;59504;54.806;9.640;2023-03-01T06:54:10;136.05;;;5.82;;
71667;SDS011;59504;54.806;9.640;2023-03-01T06:56:11;122.57;;;4.38;;
71667;SDS011;59504;54.806;9.640;2023-03-01T06:58:12;179.82;;;6.57;;
71667;SDS011;59504;54.806;9.640;2023-03-01T07:00:12;178.00;;;6.60;;
71667;SDS011;59504;54.806;9.640;2023-03-01T07:02:14;114.43;;;5.45;;
71667;SDS011;59504;54.806;9.640;2023-03-01T07:04:15;96.55;;;5.10;;
71667;SDS011;59504;54.806;9.640;2023-03-01T07:06:18;36.63;;;3.50;;
71667;SDS011;59504;54.806;9.640;2023-03-01T07:08:19;147.90;;;6.00;;
71667;SDS011;59504;54.806;9.640;2023-03-01T07:10:20;110.18;;;6.05;;
71667;SDS011;59504;54.806;9.640;2023-03-01T07:12:21;119.88;;;5.72;;
71667;SDS011;59504;54.806;9.640;2023-03-01T07:14:22;130.82;;;5.43;;
71667;SDS011;59504;54.806;9.640;2023-03-01T07:16:24;114.93;;;5.40;;
71667;SDS011;59504;54.806;9.640;2023-03-01T07:18:25;118.45;;;5.55;;
71667;SDS011;59504;54.806;9.640;2023-03-01T07:20:26;46.58;;;3.42;;
71667;SDS011;59504;54.806;9.640;2023-03-01T07:22:29;168.88;;;6.70;;
71667;SDS011;59504;54.806;9.640;2023-03-01T07:24:29;27.95;;;3.08;;
71667;SDS011;59504;54.806;9.640;2023-03-01T07:26:33;79.82;;;5.03;;
71667;SDS011;59504;54.806;9.640;2023-03-01T07:28:34;39.83;;;3.75;;
71667;SDS011;59504;54.806;9.640;2023-03-01T07:30:39;35.00;;;3.40;;
71667;SDS011;59504;54.806;9.640;2023-03-01T07:32:40;45.00;;;3.58;;
71667;SDS011;59504;54.806;9.640;2023-03-01T07:34:41;33.05;;;3.25;;
71667;SDS011;59504;54.806;9.640;2023-03-01T07:36:41;43.05;;;4.10;;
71667;SDS011;59504;54.806;9.640;2023-03-01T07:38:43;63.83;;;5.00;;
71667;SDS011;59504;54.806;9.640;2023-03-01T07:40:44;68.82;;;4.55;;
71667;SDS011;59504;54.806;9.640;2023-03-01T07:42:45;64.63;;;4.53;;
71667;SDS011;59504;54.806;9.640;2023-03-01T07:44:45;48.13;;;4.32;;
71667;SDS011;59504;54.806;9.640;2023-03-01T07:46:46;49.95;;;4.05;;
71667;SDS011;59504;54.806;9.640;2023-03-01T07:48:49;86.82;;;5.15;;
71667;SDS011;59504;54.806;9.640;2023-03-01T07:50:50;40.83;;;3.75;;
71667;SDS011;59504;54.806;9.640;2023-03-01T07:52:53;49.38;;;3.72;;
71667;SDS011;59504;54.806;9.640;2023-03-01T07:54:56;34.45;;;4.25;;
71667;SDS011;59504;54.806;9.640;2023-03-01T07:56:58;17.08;;;3.67;;
71667;SDS011;59504;54.806;9.640;2023-03-01T07:58:58;82.65;;;5.22;;
71667;SDS011;59504;54.806;9.640;2023-03-01T08:01:05;47.60;;;4.80;;
71667;SDS011;59504;54.806;9.640;2023-03-01T08:03:07;35.63;;;4.40;;
71667;SDS011;59504;54.806;9.640;2023-03-01T08:05:09;63.17;;;5.25;;
71667;SDS011;59504;54.806;9.640;2023-03-01T08:07:10;33.80;;;3.58;;
71667;SDS011;59504;54.806;9.640;2023-03-01T08:09:10;25.80;;;4.20;;
71667;SDS011;59504;54.806;9.640;2023-03-01T08:11:11;21.95;;;3.95;;
71667;SDS011;59504;54.806;9.640;2023-03-01T08:13:14;88.72;;;5.47;;
71667;SDS011;59504;54.806;9.640;2023-03-01T08:15:15;84.35;;;5.20;;
71667;SDS011;59504;54.806;9.640;2023-03-01T08:17:15;32.13;;;4.00;;
71667;SDS011;59504;54.806;9.640;2023-03-01T08:19:16;51.05;;;4.30;;
71667;SDS011;59504;54.806;9.640;2023-03-01T08:21:18;28.75;;;3.58;;
71667;SDS011;59504;54.806;9.640;2023-03-01T08:23:18;50.70;;;4.45;;
71667;SDS011;59504;54.806;9.640;2023-03-01T08:25:19;30.17;;;3.70;;
71667;SDS011;59504;54.806;9.640;2023-03-01T08:27:20;33.53;;;3.70;;
71667;SDS011;59504;54.806;9.640;2023-03-01T08:29:20;75.50;;;4.97;;
71667;SDS011;59504;54.806;9.640;2023-03-01T08:31:23;30.52;;;3.00;;
71667;SDS011;59504;54.806;9.640;2023-03-01T08:33:29;11.52;;;3.17;;
71667;SDS011;59504;54.806;9.640;2023-03-01T08:35:30;49.58;;;3.95;;
71667;SDS011;59504;54.806;9.640;2023-03-01T08:37:31;15.73;;;3.22;;
71667;SDS011;59504;54.806;9.640;2023-03-01T08:39:35;48.08;;;4.18;;
71667;SDS011;59504;54.806;9.640;2023-03-01T08:41:36;49.70;;;4.32;;
71667;SDS011;59504;54.806;9.640;2023-03-01T08:43:37;39.10;;;3.90;;
71667;SDS011;59504;54.806;9.640;2023-03-01T08:45:38;37.63;;;4.05;;
71667;SDS011;59504;54.806;9.640;2023-03-01T08:47:38;57.20;;;4.30;;
71667;SDS011;59504;54.806;9.640;2023-03-01T08:49:39;70.60;;;4.50;;
71667;SDS011;59504;54.806;9.640;2023-03-01T08:51:40;97.63;;;6.35;;
71667;SDS011;59504;54.806;9.640;2023-03-01T08:53:41;41.97;;;4.32;;
71667;SDS011;59504;54.806;9.640;2023-03-01T08:55:42;36.83;;;4.82;;
71667;SDS011;59504;54.806;9.640;2023-03-01T08:57:43;61.15;;;5.40;;
71667;SDS011;59504;54.806;9.640;2023-03-01T08:59:44;68.65;;;5.18;;
71667;SDS011;59504;54.806;9.640;2023-03-01T09:01:44;38.30;;;5.07;;
71667;SDS011;59504;54.806;9.640;2023-03-01T09:03:45;56.70;;;5.30;;
71667;SDS011;59504;54.806;9.640;2023-03-01T09:05:46;41.75;;;4.93;;
71667;SDS011;59504;54.806;9.640;2023-03-01T09:07:47;35.75;;;5.10;;
71667;SDS011;59504;54.806;9.640;2023-03-01T09:09:48;63.60;;;6.00;;
71667;SDS011;59504;54.806;9.640;2023-03-01T09:11:48;50.83;;;5.65;;
71667;SDS011;59504;54.806;9.640;2023-03-01T09:13:50;75.60;;;6.35;;
71667;SDS011;59504;54.806;9.640;2023-03-01T09:15:51;60.88;;;6.22;;
71667;SDS011;59504;54.806;9.640;2023-03-01T09:17:55;44.80;;;5.93;;
71667;SDS011;59504;54.806;9.640;2023-03-01T09:19:55;17.50;;;6.07;;
71667;SDS011;59504;54.806;9.640;2023-03-01T09:21:56;31.02;;;5.68;;
71667;SDS011;59504;54.806;9.640;2023-03-01T09:23:58;28.15;;;5.25;;
71667;SDS011;59504;54.806;9.640;2023-03-01T09:26:01;58.05;;;5.88;;
71667;SDS011;59504;54.806;9.640;2023-03-01T09:28:03;25.45;;;6.40;;
71667;SDS011;59504;54.806;9.640;2023-03-01T09:30:04;17.63;;;5.68;;
71667;SDS011;59504;54.806;9.640;2023-03-01T09:32:05;33.33;;;6.03;;
71667;SDS011;59504;54.806;9.640;2023-03-01T09:34:07;31.88;;;5.88;;
71667;SDS011;59504;54.806;9.640;2023-03-01T09:36:10;13.68;;;5.38;;
71667;SDS011;59504;54.806;9.640;2023-03-01T09:38:13;25.98;;;5.72;;
71667;SDS011;59504;54.806;9.640;2023-03-01T09:40:18;24.33;;;5.22;;
71667;SDS011;59504;54.806;9.640;2023-03-01T09:42:20;25.55;;;6.05;;
71667;SDS011;59504;54.806;9.640;2023-03-01T09:44:41;47.92;;;7.53;;
71667;SDS011;59504;54.806;9.640;2023-03-01T09:46:49;30.50;;;7.10;;
71667;SDS011;59504;54.806;9.640;2023-03-01T09:48:55;12.82;;;6.35;;
71667;SDS011;59504;54.806;9.640;2023-03-01T09:50:57;22.27;;;6.05;;
71667;SDS011;59504;54.806;9.640;2023-03-01T09:53:17;41.33;;;7.15;;
71667;SDS011;59504;54.806;9.640;2023-03-01T09:55:25;30.95;;;7.25;;
71667;SDS011;59504;54.806;9.640;2023-03-01T09:57:53;28.70;;;7.25;;
71667;SDS011;59504;54.806;9.640;2023-03-01T10:00:03;43.47;;;7.25;;
71667;SDS011;59504;54.806;9.640;2023-03-01T10:04:45;25.95;;;6.55;;
71667;SDS011;59504;54.806;9.640;2023-03-01T10:09:18;28.40;;;7.18;;
71667;SDS011;59504;54.806;9.640;2023-03-01T10:11:24;11.30;;;5.97;;
71667;SDS011;59504;54.806;9.640;2023-03-01T10:13:39;12.07;;;6.30;;
71667;SDS011;59504;54.806;9.640;2023-03-01T10:15:53;16.90;;;6.78;;
71667;SDS011;59504;54.806;9.640;2023-03-01T10:20:32;15.52;;;8.30;;
71667;SDS011;59504;54.806;9.640;2023-03-01T10:22:43;17.73;;;7.45;;
71667;SDS011;59504;54.806;9.640;2023-03-01T10:24:51;12.05;;;6.30;;
71667;SDS011;59504;54.806;9.640;2023-03-01T10:27:00;8.45;;;5.82;;
71667;SDS011;59504;54.806;9.640;2023-03-01T10:29:17;10.45;;;6.78;;
71667;SDS011;59504;54.806;9.640;2023-03-01T10:31:26;9.63;;;6.85;;
71667;SDS011;59504;54.806;9.640;2023-03-01T10:33:37;10.63;;;6.53;;
71667;SDS011;59504;54.806;9.640;2023-03-01T10:35:41;14.75;;;6.80;;
71667;SDS011;59504;54.806;9.640;2023-03-01T10:37:56;10.88;;;6.82;;
71667;SDS011;59504;54.806;9.640;2023-03-01T10:40:08;17.35;;;7.25;;
71667;SDS011;59504;54.806;9.640;2023-03-01T10:42:19;10.82;;;6.57;;
71667;SDS011;59504;54.806;9.640;2023-03-01T10:44:40;11.25;;;7.40;;
71667;SDS011;59504;54.806;9.640;2023-03-01T10:46:44;9.80;;;6.50;;
71667;SDS011;59504;54.806;9.640;2023-03-01T10:48:44;9.52;;;6.18;;
71667;SDS011;59504;54.806;9.640;2023-03-01T10:50:46;9.93;;;6.70;;
71667;SDS011;59504;54.806;9.640;2023-03-01T10:52:59;30.00;;;19.77;;
71667;SDS011;59504;54.806;9.640;2023-03-01T10:55:17;11.73;;;8.63;;
71667;SDS011;59504;54.806;9.640;2023-03-01T10:57:37;10.52;;;7.47;;
71667;SDS011;59504;54.806;9.640;2023-03-01T10:59:40;11.48;;;7.57;;
71667;SDS011;59504;54.806;9.640;2023-03-01T11:01:41;9.77;;;6.50;;
71667;SDS011;59504;54.806;9.640;2023-03-01T11:03:42;8.88;;;6.18;;
71667;SDS011;59504;54.806;9.640;2023-03-01T11:05:50;9.63;;;6.45;;
71667;SDS011;59504;54.806;9.640;2023-03-01T11:07:54;11.20;;;6.85;;
71667;SDS011;59504;54.806;9.640;2023-03-01T11:09:56;10.73;;;6.70;;
71667;SDS011;59504;54.806;9.640;2023-03-01T11:11:59;12.68;;;7.90;;
71667;SDS011;59504;54.806;9.640;2023-03-01T11:14:06;11.07;;;7.20;;
71667;SDS011;59504;54.806;9.640;2023-03-01T11:16:24;10.40;;;6.47;;
71667;SDS011;59504;54.806;9.640;2023-03-01T11:18:29;10.93;;;6.53;;
71667;SDS011;59504;54.806;9.640;2023-03-01T11:22:35;10.93;;;6.80;;
71667;SDS011;59504;54.806;9.640;2023-03-01T11:26:54;8.98;;;6.18;;
71667;SDS011;59504;54.806;9.640;2023-03-01T11:28:56;9.70;;;6.40;;
71667;SDS011;59504;54.806;9.640;2023-03-01T11:31:07;10.25;;;6.32;;
71667;SDS011;59504;54.806;9.640;2023-03-01T11:35:42;10.23;;;7.03;;
71667;SDS011;59504;54.806;9.640;2023-03-01T11:38:24;8.40;;;5.78;;
71667;SDS011;59504;54.806;9.640;2023-03-01T11:40:27;9.45;;;6.32;;
71667;SDS011;59504;54.806;9.640;2023-03-01T11:44:55;11.57;;;7.65;;
71667;SDS011;59504;54.806;9.640;2023-03-01T11:47:05;12.15;;;8.05;;
71667;SDS011;59504;54.806;9.640;2023-03-01T11:49:44;9.98;;;6.43;;
71667;SDS011;59504;54.806;9.640;2023-03-01T11:51:59;9.77;;;6.88;;
71667;SDS011;59504;54.806;9.640;2023-03-01T11:56:57;12.10;;;7.72;;
71667;SDS011;59504;54.806;9.640;2023-03-01T11:59:17;11.90;;;8.05;;
71667;SDS011;59504;54.806;9.640;2023-03-01T12:01:52;11.63;;;7.82;;
71667;SDS011;59504;54.806;9.640;2023-03-01T12:06:40;15.20;;;8.82;;
71667;SDS011;59504;54.806;9.640;2023-03-01T12:11:32;17.35;;;8.95;;
71667;SDS011;59504;54.806;9.640;2023-03-01T12:17:27;16.67;;;9.20;;
71667;SDS011;59504;54.806;9.640;2023-03-01T12:20:20;13.60;;;8.45;;
71667;SDS011;59504;54.806;9.640;2023-03-01T12:25:21;16.52;;;9.07;;
71667;SDS011;59504;54.806;9.640;2023-03-01T12:35:40;16.20;;;9.70;;
71667;SDS011;59504;54.806;9.640;2023-03-01T12:49:08;13.98;;;8.75;;
71667;SDS011;59504;54.806;9.640;2023-03-01T12:51:36;13.55;;;8.90;;
71667;SDS011;59504;54.806;9.640;2023-03-01T12:53:59;14.57;;;9.27;;
71667;SDS011;59504;54.806;9.640;2023-03-01T12:56:28;14.73;;;9.32;;
71667;SDS011;59504;54.806;9.640;2023-03-01T12:59:03;15.05;;;9.10;;
71667;SDS011;59504;54.806;9.640;2023-03-01T13:01:33;13.55;;;8.70;;
71667;SDS011;59504;54.806;9.640;2023-03-01T13:06:36;13.18;;;8.52;;
71667;SDS011;59504;54.806;9.640;2023-03-01T13:11:34;14.48;;;8.98;;
71667;SDS011;59504;54.806;9.640;2023-03-01T13:16:44;13.70;;;8.10;;
71667;SDS011;59504;54.806;9.640;2023-03-01T13:21:34;14.48;;;8.20;;
71667;SDS011;59504;54.806;9.640;2023-03-01T13:23:54;14.77;;;9.18;;
71667;SDS011;59504;54.806;9.640;2023-03-01T13:26:17;17.75;;;9.80;;
71667;SDS011;59504;54.806;9.640;2023-03-01T13:31:09;15.05;;;9.07;;
71667;SDS011;59504;54.806;9.640;2023-03-01T13:33:45;17.20;;;9.25;;
71667;SDS011;59504;54.806;9.640;2023-03-01T13:36:45;13.45;;;8.38;;
71667;SDS011;59504;54.806;9.640;2023-03-01T13:39:26;31.02;;;15.20;;
71667;SDS011;59504;54.806;9.640;2023-03-01T13:41:57;15.07;;;8.80;;
71667;SDS011;59504;54.806;9.640;2023-03-01T13:46:45;12.10;;;7.70;;
71667;SDS011;59504;54.806;9.640;2023-03-01T13:49:09;16.73;;;8.65;;
71667;SDS011;59504;54.806;9.640;2023-03-01T13:51:34;15.38;;;8.95;;
71667;SDS011;59504;54.806;9.640;2023-03-01T13:53:55;15.82;;;9.07;;
71667;SDS011;59504;54.806;9.640;2023-03-01T13:56:16;13.95;;;8.18;;
71667;SDS011;59504;54.806;9.640;2023-03-01T13:59:12;16.98;;;8.93;;
71667;SDS011;59504;54.806;9.640;2023-03-01T14:01:33;19.25;;;9.55;;
71667;SDS011;59504;54.806;9.640;2023-03-01T14:03:54;16.17;;;8.73;;
71667;SDS011;59504;54.806;9.640;2023-03-01T14:06:16;20.42;;;10.05;;
71667;SDS011;59504;54.806;9.640;2023-03-01T14:08:39;20.45;;;10.98;;
71667;SDS011;59504;54.806;9.640;2023-03-01T14:16:46;24.63;;;11.77;;
71667;SDS011;59504;54.806;9.640;2023-03-01T14:19:15;20.95;;;10.85;;
71667;SDS011;59504;54.806;9.640;2023-03-01T14:21:37;23.77;;;11.30;;
71667;SDS011;59504;54.806;9.640;2023-03-01T14:23:57;20.48;;;9.55;;
71667;SDS011;59504;54.806;9.640;2023-03-01T14:26:20;24.00;;;11.30;;
71667;SDS011;59504;54.806;9.640;2023-03-01T14:28:41;23.98;;;10.80;;
71667;SDS011;59504;54.806;9.640;2023-03-01T14:31:01;21.13;;;11.35;;
71667;SDS011;59504;54.806;9.640;2023-03-01T14:33:22;23.10;;;11.15;;
71667;SDS011;59504;54.806;9.640;2023-03-01T14:35:51;18.20;;;9.70;;
71667;SDS011;59504;54.806;9.640;2023-03-01T14:38:20;18.98;;;10.55;;
71667;SDS011;59504;54.806;9.640;2023-03-01T14:40:40;24.88;;;11.13;;
71667;SDS011;59504;54.806;9.640;2023-03-01T14:43:01;20.55;;;10.02;;
71667;SDS011;59504;54.806;9.640;2023-03-01T14:45:30;19.75;;;10.60;;